createdAt,value
2023-02-18T00:01:37.611Z,3.00
2023-02-18T00:04:08.299Z,5.10
2023-02-18T00:06:36.801Z,3.95
2023-02-18T00:09:05.844Z,4.18
2023-02-18T00:11:35.572Z,4.13
2023-02-18T00:14:05.428Z,3.55
2023-02-18T00:16:34.754Z,4.07
2023-02-18T00:19:06.494Z,3.95
2023-02-18T00:21:35.634Z,3.55
2023-02-18T00:24:04.546Z,3.55
2023-02-18T00:26:31.870Z,9.32
2023-02-18T00:28:59.166Z,4.90
2023-02-18T00:31:29.475Z,4.68
2023-02-18T00:37:49.473Z,3.05
2023-02-18T00:40:17.186Z,3.58
2023-02-18T00:42:44.670Z,5.38
2023-02-18T00:45:11.997Z,6.30
2023-02-18T00:47:39.185Z,3.45
2023-02-18T00:50:07.183Z,6.82
2023-02-18T00:52:34.329Z,4.55
2023-02-18T00:55:02.021Z,3.67
2023-02-18T00:57:29.281Z,6.00
2023-02-18T00:59:56.561Z,5.15
2023-02-18T01:02:24.009Z,3.28
2023-02-18T01:04:51.370Z,7.82
2023-02-18T01:07:18.701Z,5.82
2023-02-18T01:09:45.918Z,3.00
2023-02-18T01:12:13.264Z,3.65
2023-02-18T01:14:40.714Z,3.25
2023-02-18T01:17:08.160Z,4.35
2023-02-18T01:19:35.485Z,3.40
2023-02-18T01:22:02.676Z,3.40
2023-02-18T01:24:30.151Z,3.60
2023-02-18T01:26:57.447Z,4.97
2023-02-18T01:29:24.683Z,3.88
2023-02-18T01:31:52.055Z,3.63
2023-02-18T01:34:19.468Z,4.43
2023-02-18T01:36:46.754Z,4.22
2023-02-18T01:39:13.891Z,4.03
2023-02-18T01:41:44.052Z,4.18
2023-02-18T01:44:20.854Z,3.28
2023-02-18T01:46:48.525Z,3.50
2023-02-18T01:49:26.026Z,3.63
2023-02-18T01:51:57.851Z,3.70
2023-02-18T01:54:40.084Z,4.53
2023-02-18T01:57:12.293Z,3.72
2023-02-18T02:00:14.733Z,5.90
2023-02-18T02:02:46.993Z,4.25
2023-02-18T02:05:14.719Z,3.08
2023-02-18T02:07:43.360Z,3.85
2023-02-18T02:10:12.396Z,4.80
2023-02-18T02:13:12.126Z,5.85
2023-02-18T02:15:48.232Z,2.55
2023-02-18T02:18:30.170Z,3.97
2023-02-18T02:21:29.713Z,2.85
2023-02-18T02:24:18.257Z,3.95
2023-02-18T02:26:57.373Z,2.78
2023-02-18T02:29:43.693Z,3.60
2023-02-18T02:32:13.894Z,3.92
2023-02-18T02:35:13.904Z,5.05
2023-02-18T02:37:59.702Z,3.60
2023-02-18T02:40:32.998Z,2.55
2023-02-18T02:43:18.592Z,3.22
2023-02-18T02:46:11.812Z,2.05
2023-02-18T02:48:57.720Z,3.50
2023-02-18T02:53:55.398Z,2.13
2023-02-18T02:56:25.958Z,3.15
2023-02-18T02:59:02.407Z,2.15
2023-02-18T03:01:41.471Z,5.75
2023-02-18T03:04:32.304Z,3.10
2023-02-18T03:07:29.794Z,2.60
2023-02-18T03:10:10.261Z,3.97
2023-02-18T03:12:56.007Z,1.80
2023-02-18T03:18:34.383Z,2.45
2023-02-18T03:21:24.600Z,3.17
2023-02-18T03:24:09.367Z,4.07
2023-02-18T03:26:42.351Z,3.30
2023-02-18T03:29:12.943Z,2.97
2023-02-18T03:31:42.706Z,4.07
2023-02-18T03:34:16.979Z,2.67
2023-02-18T03:36:45.416Z,2.20
2023-02-18T03:39:21.802Z,2.75
2023-02-18T03:41:49.844Z,3.03
2023-02-18T03:44:17.428Z,2.45
2023-02-18T03:46:45.652Z,4.55
2023-02-18T03:49:14.992Z,2.92
2023-02-18T03:51:43.116Z,2.65
2023-02-18T03:54:11.418Z,4.10
2023-02-18T03:56:38.862Z,3.92
2023-02-18T03:59:06.208Z,3.25
2023-02-18T04:01:33.501Z,2.63
2023-02-18T04:04:01.035Z,2.53
2023-02-18T04:06:28.366Z,2.20
2023-02-18T04:08:55.482Z,3.05
2023-02-18T04:11:22.789Z,3.67
2023-02-18T04:13:50.122Z,2.33
2023-02-18T04:16:17.454Z,3.05
2023-02-18T04:18:44.750Z,4.43
2023-02-18T04:21:11.970Z,2.28
2023-02-18T04:23:39.251Z,1.67
2023-02-18T04:26:06.966Z,2.47
2023-02-18T04:28:34.513Z,2.47
2023-02-18T04:31:02.139Z,5.60
2023-02-18T04:33:29.225Z,2.70
2023-02-18T04:35:56.394Z,2.95
2023-02-18T04:38:23.964Z,2.78
2023-02-18T04:40:51.227Z,1.83
2023-02-18T04:43:18.384Z,1.52
2023-02-18T04:45:45.750Z,1.98
2023-02-18T04:48:13.155Z,1.73
2023-02-18T04:50:40.832Z,2.20
2023-02-18T04:53:08.228Z,1.88
2023-02-18T04:55:35.423Z,3.28
2023-02-18T04:58:02.505Z,4.88
2023-02-18T05:00:29.830Z,2.50
2023-02-18T05:02:57.083Z,2.55
2023-02-18T05:05:24.414Z,1.75
2023-02-18T05:07:51.485Z,1.73
2023-02-18T05:10:19.280Z,1.77
2023-02-18T05:12:46.606Z,2.80
2023-02-18T05:15:14.276Z,1.90
2023-02-18T05:17:41.781Z,3.58
2023-02-18T05:20:10.135Z,2.40
2023-02-18T05:22:37.752Z,1.73
2023-02-18T05:25:06.181Z,2.15
2023-02-18T05:27:33.494Z,2.22
2023-02-18T05:30:00.810Z,2.58
2023-02-18T05:32:30.839Z,2.08
2023-02-18T05:34:58.196Z,1.98
2023-02-18T05:37:25.614Z,5.20
2023-02-18T05:39:53.070Z,2.22
2023-02-18T05:42:21.121Z,3.80
2023-02-18T05:44:48.364Z,1.85
2023-02-18T05:47:15.789Z,3.08
2023-02-18T05:49:44.008Z,2.03
2023-02-18T05:52:12.975Z,1.70
2023-02-18T05:54:40.242Z,3.53
2023-02-18T05:57:07.620Z,1.83
2023-02-18T05:59:34.979Z,1.65
2023-02-18T06:02:02.330Z,3.38
2023-02-18T06:04:29.643Z,3.50
2023-02-18T06:06:56.808Z,2.30
2023-02-18T06:09:24.018Z,1.30
2023-02-18T06:11:51.861Z,2.33
2023-02-18T06:14:19.475Z,1.83
2023-02-18T06:16:46.748Z,2.00
2023-02-18T06:19:14.147Z,1.73
2023-02-18T06:21:41.592Z,1.98
2023-02-18T06:24:09.115Z,2.80
2023-02-18T06:26:36.598Z,1.42
2023-02-18T06:29:04.112Z,2.55
2023-02-18T06:31:31.709Z,1.98
2023-02-18T06:33:59.064Z,1.98
2023-02-18T06:36:26.163Z,4.03
2023-02-18T06:38:54.789Z,2.00
2023-02-18T06:41:22.212Z,2.15
2023-02-18T06:43:49.460Z,1.70
2023-02-18T06:46:16.743Z,1.67
2023-02-18T06:48:44.117Z,1.55
2023-02-18T06:51:11.435Z,1.45
2023-02-18T06:53:38.697Z,1.35
2023-02-18T06:56:06.729Z,1.70
2023-02-18T06:58:34.216Z,1.52
2023-02-18T07:01:01.588Z,1.70
2023-02-18T07:03:30.224Z,1.70
2023-02-18T07:05:57.582Z,3.15
2023-02-18T07:08:24.911Z,1.45
2023-02-18T07:10:52.199Z,1.25
2023-02-18T07:13:19.617Z,2.88
2023-02-18T07:15:46.798Z,2.08
2023-02-18T07:18:13.892Z,1.25
2023-02-18T07:20:41.268Z,2.05
2023-02-18T07:23:08.605Z,1.48
2023-02-18T07:25:35.932Z,4.60
2023-02-18T07:28:03.442Z,1.50
2023-02-18T07:30:30.694Z,1.05
2023-02-18T07:32:58.176Z,1.50
2023-02-18T07:35:25.758Z,1.40
2023-02-18T07:37:52.938Z,1.50
2023-02-18T07:40:22.463Z,1.25
2023-02-18T07:42:52.446Z,1.38
2023-02-18T07:45:19.775Z,1.58
2023-02-18T07:47:47.073Z,1.52
2023-02-18T07:50:17.538Z,1.73
2023-02-18T07:52:44.828Z,1.33
2023-02-18T07:55:12.107Z,1.00
2023-02-18T07:57:57.527Z,3.03
2023-02-18T08:00:24.994Z,1.52
2023-02-18T08:02:52.140Z,1.45
2023-02-18T08:05:19.567Z,1.13
2023-02-18T08:07:46.722Z,1.60
2023-02-18T08:10:14.037Z,1.13
2023-02-18T08:12:41.426Z,2.30
2023-02-18T08:15:09.503Z,10.88
2023-02-18T08:17:36.835Z,19.52
2023-02-18T08:20:04.134Z,8.93
2023-02-18T08:22:31.230Z,8.55
2023-02-18T08:24:58.624Z,9.75
2023-02-18T08:27:25.914Z,12.88
2023-02-18T08:29:53.164Z,3.22
2023-02-18T08:32:20.759Z,15.45
2023-02-18T08:34:47.966Z,25.23
2023-02-18T08:37:15.243Z,13.82
2023-02-18T08:39:42.538Z,6.88
2023-02-18T08:42:10.006Z,3.75
2023-02-18T08:44:37.348Z,4.60
2023-02-18T08:47:04.667Z,4.45
2023-02-18T08:49:53.916Z,3.42
2023-02-18T08:52:21.346Z,3.38
2023-02-18T08:54:48.729Z,4.28
2023-02-18T08:57:15.868Z,2.10
2023-02-18T08:59:43.028Z,2.58
2023-02-18T09:02:14.281Z,1.80
2023-02-18T09:04:41.370Z,4.85
2023-02-18T09:07:08.346Z,3.30
2023-02-18T09:09:35.727Z,2.47
2023-02-18T09:12:03.088Z,2.38
2023-02-18T09:14:30.344Z,2.30
2023-02-18T09:16:58.738Z,2.17
2023-02-18T09:19:26.246Z,1.90
2023-02-18T09:21:53.486Z,2.30
2023-02-18T09:24:21.533Z,7.57
2023-02-18T09:26:49.043Z,5.35
2023-02-18T09:29:16.593Z,7.03
2023-02-18T09:31:43.907Z,4.25
2023-02-18T09:34:11.324Z,4.03
2023-02-18T09:36:39.920Z,2.92
2023-02-18T09:39:07.260Z,2.55
2023-02-18T09:41:54.983Z,2.13
2023-02-18T09:44:23.950Z,3.47
2023-02-18T09:46:59.447Z,3.38
2023-02-18T09:49:30.622Z,2.42
2023-02-18T09:52:11.439Z,1.65
2023-02-18T09:54:38.863Z,2.10
2023-02-18T09:57:15.868Z,2.20
2023-02-18T09:59:45.278Z,1.70
2023-02-18T10:02:17.770Z,2.47
2023-02-18T10:04:52.445Z,2.55
2023-02-18T10:07:28.668Z,2.08
2023-02-18T10:09:58.667Z,1.45
2023-02-18T10:12:27.351Z,1.45
2023-02-18T10:15:00.841Z,1.85
2023-02-18T10:17:31.257Z,1.65
2023-02-18T10:20:01.447Z,2.45
2023-02-18T10:22:30.942Z,2.38
2023-02-18T10:25:01.046Z,2.45
2023-02-18T10:27:31.315Z,2.10
2023-02-18T10:30:09.634Z,2.65
2023-02-18T10:32:40.415Z,5.03
2023-02-18T10:35:35.078Z,3.15
2023-02-18T10:38:41.438Z,2.17
2023-02-18T10:41:35.556Z,1.38
2023-02-18T10:44:14.797Z,2.70
2023-02-18T10:47:34.860Z,1.45
2023-02-18T10:50:10.618Z,2.17
2023-02-18T10:52:44.545Z,2.40
2023-02-18T10:55:18.901Z,2.22
2023-02-18T10:57:51.589Z,1.73
2023-02-18T11:00:26.642Z,1.92
2023-02-18T11:03:12.318Z,1.83
2023-02-18T11:08:10.459Z,1.92
2023-02-18T11:10:42.462Z,1.73
2023-02-18T11:13:13.877Z,2.50
2023-02-18T11:16:02.011Z,2.00
2023-02-18T11:18:46.925Z,1.90
2023-02-18T11:21:35.891Z,1.80
2023-02-18T11:24:17.491Z,1.95
2023-02-18T11:26:45.042Z,2.13
2023-02-18T11:29:24.970Z,1.48
2023-02-18T11:31:55.976Z,1.23
2023-02-18T11:34:33.384Z,1.75
2023-02-18T11:37:13.015Z,1.55
2023-02-18T11:39:45.862Z,1.70
2023-02-18T11:42:16.236Z,1.85
2023-02-18T11:45:00.421Z,2.25
2023-02-18T11:47:34.577Z,3.55
2023-02-18T11:50:10.773Z,4.38
2023-02-18T11:52:44.246Z,3.50
2023-02-18T11:55:30.783Z,2.05
2023-02-18T11:58:01.179Z,2.35
2023-02-18T12:00:44.604Z,5.90
2023-02-18T12:03:17.816Z,4.80
2023-02-18T12:05:46.373Z,4.10
2023-02-18T12:08:41.689Z,4.25
2023-02-18T12:11:22.931Z,4.18
2023-02-18T12:13:57.140Z,4.68
2023-02-18T12:16:51.702Z,4.15
2023-02-18T12:19:37.509Z,3.45
2023-02-18T12:22:38.638Z,3.42
2023-02-18T12:25:08.798Z,2.00
2023-02-18T12:27:50.663Z,7.55
2023-02-18T12:30:30.189Z,4.30
2023-02-18T12:33:21.862Z,3.17
2023-02-18T12:35:51.663Z,3.58
2023-02-18T12:38:36.369Z,1.60
2023-02-18T12:41:16.013Z,1.90
2023-02-18T12:43:57.939Z,1.70
2023-02-18T12:46:41.520Z,2.28
2023-02-18T12:49:28.911Z,1.80
2023-02-18T12:52:09.614Z,0.90
2023-02-18T12:55:04.197Z,0.90
2023-02-18T12:57:51.791Z,0.80
2023-02-18T13:00:27.922Z,0.50
2023-02-18T13:03:25.644Z,0.63
2023-02-18T13:06:05.089Z,0.50
2023-02-18T13:08:43.964Z,0.43
2023-02-18T13:11:20.453Z,0.52
2023-02-18T13:13:51.902Z,0.40
2023-02-18T13:16:20.627Z,0.43
2023-02-18T13:19:02.277Z,0.65
2023-02-18T13:21:31.371Z,0.50
2023-02-18T13:24:13.706Z,0.85
2023-02-18T13:26:44.936Z,0.77
2023-02-18T13:29:31.824Z,0.60
2023-02-18T13:32:24.151Z,0.52
2023-02-18T13:35:25.825Z,0.50
2023-02-18T13:38:19.074Z,0.50
2023-02-18T13:40:47.056Z,0.40
2023-02-18T13:43:28.923Z,0.63
2023-02-18T13:46:12.266Z,0.47
2023-02-18T13:48:54.521Z,0.50
2023-02-18T13:51:50.106Z,0.60
2023-02-18T13:54:24.604Z,0.50
2023-02-18T13:57:20.199Z,0.47
2023-02-18T13:59:58.447Z,0.47
2023-02-18T14:02:28.573Z,0.43
2023-02-18T14:04:57.872Z,0.80
2023-02-18T14:07:36.031Z,0.95
2023-02-18T14:10:28.453Z,0.68
2023-02-18T14:12:58.537Z,1.25
2023-02-18T14:15:25.646Z,1.50
2023-02-18T14:18:12.934Z,1.58
2023-02-18T14:20:41.181Z,1.10
2023-02-18T14:23:20.623Z,0.90
2023-02-18T14:26:13.241Z,0.70
2023-02-18T14:28:48.496Z,1.35
2023-02-18T14:31:15.916Z,0.85
2023-02-18T14:34:10.268Z,0.68
2023-02-18T14:36:45.693Z,0.85
2023-02-18T14:39:43.818Z,0.88
2023-02-18T14:42:13.944Z,0.70
2023-02-18T14:44:55.481Z,1.10
2023-02-18T14:48:00.021Z,0.98
2023-02-18T14:50:32.281Z,0.80
2023-02-18T14:53:04.966Z,1.42
2023-02-18T14:55:45.178Z,0.98
2023-02-18T14:58:36.266Z,0.90
2023-02-18T15:01:25.796Z,1.10
2023-02-18T15:03:55.692Z,0.90
2023-02-18T15:06:30.706Z,0.90
2023-02-18T15:08:59.202Z,0.95
2023-02-18T15:11:38.399Z,0.85
2023-02-18T15:14:15.683Z,1.00
2023-02-18T15:16:46.554Z,0.90
2023-02-18T15:19:20.385Z,0.60
2023-02-18T15:21:50.685Z,2.00
2023-02-18T15:24:27.981Z,0.70
2023-02-18T15:26:59.688Z,2.78
2023-02-18T15:29:29.780Z,0.85
2023-02-18T15:31:58.502Z,1.70
2023-02-18T15:34:40.041Z,1.75
2023-02-18T15:37:13.798Z,0.90
2023-02-18T15:39:42.817Z,1.25
2023-02-18T15:42:15.346Z,0.75
2023-02-18T15:44:56.497Z,0.93
2023-02-18T15:47:24.150Z,1.30
2023-02-18T15:49:54.778Z,1.25
2023-02-18T15:52:28.854Z,1.15
2023-02-18T15:55:01.405Z,3.60
2023-02-18T15:57:32.861Z,2.70
2023-02-18T16:00:19.223Z,5.63
2023-02-18T16:03:15.349Z,4.45
2023-02-18T16:08:27.743Z,0.80
2023-02-18T16:11:03.588Z,0.90
2023-02-18T16:13:31.946Z,0.75
2023-02-18T16:16:01.050Z,0.50
2023-02-18T16:18:33.190Z,0.40
2023-02-18T16:21:17.423Z,0.43
2023-02-18T16:23:59.696Z,0.20
2023-02-18T16:26:39.067Z,0.50
2023-02-18T16:29:14.288Z,0.30
2023-02-18T16:34:08.934Z,0.43
2023-02-18T16:36:36.357Z,0.30
2023-02-18T16:39:03.932Z,1.00
2023-02-18T16:41:31.093Z,0.68
2023-02-18T16:43:58.414Z,0.50
2023-02-18T16:46:25.837Z,0.40
2023-02-18T16:48:56.911Z,0.50
2023-02-18T16:51:33.881Z,0.63
2023-02-18T16:54:01.152Z,0.50
2023-02-18T16:56:35.908Z,0.60
2023-02-18T16:59:03.216Z,0.60
2023-02-18T17:01:41.427Z,0.75
2023-02-18T17:04:13.032Z,1.23
2023-02-18T17:06:40.511Z,1.00
2023-02-18T17:09:27.931Z,0.55
2023-02-18T17:11:56.154Z,0.70
2023-02-18T17:14:23.820Z,1.00
2023-02-18T17:16:55.003Z,0.68
2023-02-18T17:19:22.496Z,0.70
2023-02-18T17:21:50.609Z,1.00
2023-02-18T17:24:19.063Z,0.98
2023-02-18T17:26:49.066Z,0.82
2023-02-18T17:29:16.467Z,0.43
2023-02-18T17:31:47.385Z,0.73
2023-02-18T17:34:28.080Z,1.13
2023-02-18T17:36:55.465Z,0.80
2023-02-18T17:39:22.891Z,1.10
2023-02-18T17:41:50.694Z,1.00
2023-02-18T17:44:19.812Z,1.50
2023-02-18T17:46:49.826Z,1.88
2023-02-18T17:49:19.605Z,1.13
2023-02-18T17:51:47.470Z,1.00
2023-02-18T17:54:18.009Z,1.05
2023-02-18T17:56:45.967Z,1.48
2023-02-18T17:59:13.428Z,1.38
2023-02-18T18:01:40.982Z,1.73
2023-02-18T18:04:17.822Z,1.48
2023-02-18T18:06:46.018Z,1.33
2023-02-18T18:09:13.461Z,1.35
2023-02-18T18:11:40.794Z,1.33
2023-02-18T18:14:08.004Z,1.92
2023-02-18T18:16:35.761Z,1.40
2023-02-18T18:19:03.012Z,1.65
2023-02-18T18:21:33.343Z,2.03
2023-02-18T18:24:01.187Z,2.45
2023-02-18T18:26:29.595Z,2.08
2023-02-18T18:28:58.257Z,1.83
2023-02-18T18:31:26.006Z,2.45
2023-02-18T18:33:53.806Z,2.28
2023-02-18T18:36:24.504Z,2.47
2023-02-18T18:38:52.658Z,3.08
2023-02-18T18:41:22.322Z,2.88
2023-02-18T18:43:50.410Z,3.08
2023-02-18T18:46:18.400Z,3.47
2023-02-18T18:48:46.317Z,2.97
2023-02-18T18:51:23.062Z,3.75
2023-02-18T18:53:55.424Z,2.58
2023-02-18T18:56:22.734Z,3.25
2023-02-18T18:58:50.278Z,3.45
2023-02-18T19:01:23.378Z,3.70
2023-02-18T19:03:50.613Z,3.60
2023-02-18T19:06:18.341Z,4.20
2023-02-18T19:08:47.988Z,3.85
2023-02-18T19:11:16.813Z,4.20
2023-02-18T19:13:45.379Z,4.63
2023-02-18T19:16:22.726Z,5.07
2023-02-18T19:18:50.078Z,4.78
2023-02-18T19:21:17.452Z,11.40
2023-02-18T19:23:45.216Z,5.53
2023-02-18T19:26:14.782Z,5.43
2023-02-18T19:28:42.075Z,4.78
2023-02-18T19:31:11.150Z,9.20
2023-02-18T19:33:39.541Z,10.60
2023-02-18T19:36:11.348Z,7.45
2023-02-18T19:38:39.336Z,5.40
2023-02-18T19:41:14.681Z,5.47
2023-02-18T19:46:11.168Z,5.28
2023-02-18T19:48:41.293Z,6.43
2023-02-18T19:51:09.633Z,9.23
2023-02-18T19:53:37.304Z,7.80
2023-02-18T19:56:11.349Z,8.27
2023-02-18T19:58:41.920Z,8.25
2023-02-18T20:01:17.976Z,6.30
2023-02-18T20:03:45.537Z,8.20
2023-02-18T20:06:17.868Z,5.63
2023-02-18T20:08:46.326Z,8.60
2023-02-18T20:11:13.657Z,7.40
2023-02-18T20:13:41.107Z,7.68
2023-02-18T20:16:09.595Z,7.95
2023-02-18T20:18:36.850Z,8.32
2023-02-18T20:21:04.339Z,8.88
2023-02-18T20:23:31.433Z,8.63
2023-02-18T20:25:58.839Z,8.43
2023-02-18T20:28:26.002Z,8.45
2023-02-18T20:31:07.851Z,8.93
2023-02-18T20:33:35.709Z,8.77
2023-02-18T20:36:05.373Z,11.02
2023-02-18T20:38:33.110Z,9.07
2023-02-18T20:41:09.068Z,8.82
2023-02-18T20:43:36.699Z,9.50
2023-02-18T20:46:05.582Z,11.18
2023-02-18T20:48:33.603Z,10.70
2023-02-18T20:51:11.655Z,10.93
2023-02-18T20:53:40.714Z,10.13
2023-02-18T20:56:08.719Z,11.20
2023-02-18T20:58:36.678Z,9.65
2023-02-18T21:01:10.264Z,12.10
2023-02-18T21:03:38.990Z,11.52
2023-02-18T21:06:15.746Z,12.27
2023-02-18T21:08:45.325Z,11.68
2023-02-18T21:11:22.686Z,11.45
2023-02-18T21:13:51.546Z,12.75
2023-02-18T21:16:20.921Z,10.75
2023-02-18T21:18:48.984Z,10.65
2023-02-18T21:21:16.970Z,11.32
2023-02-18T21:23:44.655Z,11.07
2023-02-18T21:26:15.165Z,12.93
2023-02-18T21:28:44.757Z,12.82
2023-02-18T21:31:36.711Z,13.82
2023-02-18T21:34:05.556Z,12.80
2023-02-18T21:36:32.833Z,13.60
2023-02-18T21:39:06.536Z,13.57
2023-02-18T21:41:35.330Z,13.23
2023-02-18T21:44:02.970Z,13.82
2023-02-18T21:46:32.834Z,13.77
2023-02-18T21:49:03.674Z,14.02
2023-02-18T21:51:57.912Z,13.00
2023-02-18T21:54:32.821Z,13.43
2023-02-18T21:57:01.878Z,12.45
2023-02-18T21:59:33.159Z,12.98
2023-02-18T22:02:01.196Z,13.38
2023-02-18T22:04:30.290Z,13.90
2023-02-18T22:06:57.856Z,12.48
2023-02-18T22:09:25.817Z,12.93
2023-02-18T22:11:53.054Z,12.55
2023-02-18T22:14:21.722Z,12.52
2023-02-18T22:16:49.275Z,12.43
2023-02-18T22:19:16.786Z,13.30
2023-02-18T22:21:44.918Z,12.30
2023-02-18T22:24:17.769Z,11.48
2023-02-18T22:26:47.171Z,11.00
2023-02-18T22:29:15.954Z,11.25
2023-02-18T22:31:50.361Z,10.45
2023-02-18T22:34:17.644Z,10.13
2023-02-18T22:36:45.162Z,10.20
2023-02-18T22:39:13.369Z,11.13
2023-02-18T22:41:40.632Z,11.27
2023-02-18T22:44:11.484Z,11.55
2023-02-18T22:46:39.031Z,11.23
2023-02-18T22:49:07.108Z,10.80
2023-02-18T22:51:40.089Z,9.85
2023-02-18T22:54:11.527Z,12.48
2023-02-18T22:56:38.847Z,11.40
2023-02-18T22:59:06.305Z,11.32
2023-02-18T23:01:36.515Z,10.35
2023-02-18T23:04:13.562Z,9.75
2023-02-18T23:06:43.448Z,10.27
2023-02-18T23:09:14.818Z,10.35
2023-02-18T23:11:42.400Z,10.02
2023-02-18T23:14:19.061Z,10.30
2023-02-18T23:17:13.060Z,11.18
2023-02-18T23:19:48.855Z,10.70
2023-02-18T23:22:32.370Z,10.23
2023-02-18T23:25:00.915Z,11.88
2023-02-18T23:27:28.775Z,10.63
2023-02-18T23:29:56.714Z,12.00
2023-02-18T23:32:24.520Z,10.65
2023-02-18T23:34:51.970Z,9.95
2023-02-18T23:37:38.964Z,9.43
2023-02-18T23:40:06.912Z,8.60
2023-02-18T23:42:34.143Z,10.10
2023-02-18T23:45:03.608Z,8.60
2023-02-18T23:47:31.177Z,9.02
2023-02-18T23:49:59.329Z,8.88
2023-02-18T23:52:26.515Z,10.07
2023-02-18T23:54:53.896Z,9.30
2023-02-18T23:57:20.970Z,10.52
2023-02-18T23:59:47.977Z,9.13
